This is the latest recevied weather packets stored in our database for station/object WG5EEK. If no packets are shown the sender has not sent any weather packets the latest 10 day(s).
| Time | Temp. | Humidity | Pressure | Rain* | Wind** | Luminosity | Snow |
|---|---|---|---|---|---|---|---|
| 1777840202 | 26.67° C | 54% | 968.8 hPa | - | - | - | - |
| 1777837682 | 26.67° C | 54% | 969.5 hPa | - | - | - | - |
| 1777836964 | 25.56° C | 58% | 970.8 hPa | - | - | - | - |
| 1777834441 | 25.56° C | 57% | 972.1 hPa | - | - | - | - |
| 1777833722 | 25.56° C | 57% | 972.1 hPa | - | - | - | - |
| 1777833002 | 24.44° C | 57% | 973.2 hPa | - | - | - | - |
| 1777830843 | 23.89° C | 58% | 974.7 hPa | - | - | - | - |
| 1777829761 | 23.89° C | 57% | 975.6 hPa | - | - | - | - |
| 1777829402 | 23.89° C | 57% | 975.8 hPa | - | - | - | - |
| 1777826523 | 22.78° C | 58% | 977.7 hPa | - | - | - | - |
| 1777826162 | 22.78° C | 58% | 978 hPa | - | - | - | - |
| 1777824001 | 21.67° C | 58% | 980.1 hPa | - | - | - | - |
| 1777823307 | 21.11° C | 57% | 981.2 hPa | - | - | - | - |
| 1777820067 | 18.89° C | 58% | 984.8 hPa | - | - | - | - |
| 1777816107 | 15.56° C | 68% | 990.4 hPa | - | - | - | - |
| 1777815363 | 15° C | 68% | 991.4 hPa | - | - | - | - |
| 1777815002 | 14.44° C | 68% | 991.7 hPa | - | - | - | - |
| 1777813922 | 13.89° C | 69% | 993.1 hPa | - | - | - | - |
| 1777811761 | 12.22° C | 76% | 996.1 hPa | - | - | - | - |
| 1777811402 | 11.67° C | 76% | 996.4 hPa | - | - | - | - |
| 1777807802 | 10.56° C | 75% | 997.3 hPa | - | - | - | - |
| 1777807443 | 11.11° C | 75% | 997.2 hPa | - | - | - | - |
| 1777807081 | 11.11° C | 75% | 996.9 hPa | - | - | - | - |
| 1777806721 | 11.11° C | 75% | 996.9 hPa | - | - | - | - |
| 1777804921 | 11.67° C | 74% | 996.3 hPa | - | - | - | - |
* Rain since midnight (hover to see other rain measurements)
** Current wind speed in m/s (hover to see current wind gust speed)